Time,TemperatureF,DewpointF,PressureIn,WindDirection,WindDirectionDegrees,WindSpeedMPH,WindSpeedGustMPH,Humidity,HourlyPrecipIn,Conditions,Clouds,dailyrainin,SoftwareType,DateUTC
2013-02-01 00:03:00,26.0,12.0,29.28,West,271,4.0,14.0,54,0.00,,,0.00,,2013-02-01 05:03:00,
2013-02-01 05:01:00,22.0,3.0,29.38,West,274,0.0,0.0,43,0.00,,,0.00,,2013-02-01 10:01:00,
2013-02-01 05:11:00,22.0,3.0,29.38,West,274,0.0,0.0,43,0.00,,,0.00,,2013-02-01 10:11:00,
2013-02-01 05:21:00,22.0,3.0,29.38,West,274,0.0,0.0,43,0.00,,,0.00,,2013-02-01 10:21:00,
2013-02-01 05:32:00,22.0,3.0,29.38,West,274,0.0,0.0,43,0.00,,,0.00,,2013-02-01 10:32:00,
2013-02-01 05:42:00,22.0,3.0,29.38,West,274,0.0,0.0,43,0.00,,,0.00,,2013-02-01 10:42:00,
2013-02-01 06:02:00,21.0,3.0,29.41,SW,234,5.0,10.0,45,0.00,,,0.00,,2013-02-01 11:02:00,
2013-02-01 06:11:00,21.0,3.0,29.41,SW,234,5.0,10.0,45,0.00,,,0.00,,2013-02-01 11:11:00,
2013-02-01 06:22:00,21.0,3.0,29.41,SW,234,5.0,10.0,45,0.00,,,0.00,,2013-02-01 11:22:00,
2013-02-01 06:32:00,21.0,3.0,29.43,West,267,1.0,11.0,44,0.00,,,0.00,,2013-02-01 11:32:00,
2013-02-01 06:42:00,21.0,3.0,29.43,West,267,1.0,11.0,44,0.00,,,0.00,,2013-02-01 11:42:00,
2013-02-01 06:53:00,21.0,3.0,29.43,West,267,1.0,11.0,44,0.00,,,0.00,,2013-02-01 11:53:00,
2013-02-01 07:03:00,21.0,3.0,29.43,West,267,1.0,11.0,44,0.00,,,0.00,,2013-02-01 12:03:00,
2013-02-01 07:12:00,21.0,3.0,29.43,West,267,1.0,11.0,44,0.00,,,0.00,,2013-02-01 12:12:00,
2013-02-01 07:52:00,20.0,7.0,29.47,West,264,0.0,0.0,57,0.00,,,0.00,,2013-02-01 12:52:00,
2013-02-01 08:02:00,20.0,6.0,29.48,WSW,240,0.0,7.0,53,0.00,,,0.00,,2013-02-01 13:02:00,
2013-02-01 08:12:00,20.0,6.0,29.48,WSW,240,0.0,7.0,53,0.00,,,0.00,,2013-02-01 13:12:00,
2013-02-01 08:22:00,20.0,8.0,29.50,West,265,0.0,0.0,58,0.00,,,0.00,,2013-02-01 13:22:00,
2013-02-01 08:33:00,20.0,5.0,29.51,NW,315,0.0,11.0,52,0.00,,,0.00,,2013-02-01 13:33:00,
2013-02-01 08:40:00,21.0,5.0,29.53,WSW,257,6.0,11.0,50,0.00,,,0.00,,2013-02-01 13:40:00,
2013-02-01 08:42:00,20.0,5.0,29.51,NW,315,0.0,11.0,52,0.00,,,0.00,,2013-02-01 13:42:00,
2013-02-01 08:52:00,20.0,5.0,29.51,NW,315,0.0,11.0,52,0.00,,,0.00,,2013-02-01 13:52:00,
2013-02-01 09:03:00,21.0,5.0,29.53,WSW,257,6.0,11.0,50,0.00,,,0.00,,2013-02-01 14:03:00,
2013-02-01 09:11:00,21.0,5.0,29.53,WSW,257,6.0,11.0,50,0.00,,,0.00,,2013-02-01 14:11:00,
2013-02-01 09:22:00,21.0,5.0,29.53,WSW,257,6.0,11.0,50,0.00,,,0.00,,2013-02-01 14:22:00,
2013-02-01 09:32:00,21.0,5.0,29.53,WSW,257,6.0,11.0,50,0.00,,,0.00,,2013-02-01 14:32:00,
2013-02-01 10:52:00,20.0,1.0,29.59,WNW,291,1.0,12.0,43,0.00,,,0.00,,2013-02-01 15:52:00,
2013-02-01 11:03:00,21.0,2.0,29.60,WNW,282,6.0,9.0,43,0.00,,,0.00,,2013-02-01 16:03:00,
2013-02-01 11:12:00,21.0,2.0,29.61,West,264,0.0,6.0,42,0.00,,,0.00,,2013-02-01 16:12:00,
2013-02-01 11:22:00,21.0,2.0,29.61,West,264,0.0,6.0,42,0.00,,,0.00,,2013-02-01 16:22:00,
2013-02-01 11:33:00,21.0,2.0,29.61,West,264,0.0,6.0,42,0.00,,,0.00,,2013-02-01 16:33:00,
2013-02-01 11:43:00,21.0,2.0,29.61,West,264,0.0,6.0,42,0.00,,,0.00,,2013-02-01 16:43:00,
2013-02-01 11:52:00,21.0,2.0,29.61,West,264,0.0,6.0,42,0.00,,,0.00,,2013-02-01 16:52:00,
2013-02-01 12:02:00,23.0,4.0,29.62,WSW,253,3.0,3.0,43,0.00,,,0.00,,2013-02-01 17:02:00,
2013-02-01 12:12:00,23.0,3.0,29.62,WSW,243,5.0,12.0,42,0.00,,,0.00,,2013-02-01 17:12:00,
2013-02-01 12:22:00,23.0,3.0,29.62,WSW,243,5.0,12.0,42,0.00,,,0.00,,2013-02-01 17:22:00,
2013-02-01 12:32:00,23.0,2.0,29.62,WSW,246,6.0,12.0,39,0.00,,,0.00,,2013-02-01 17:32:00,
2013-02-01 12:42:00,23.0,2.0,29.62,WSW,246,6.0,12.0,39,0.00,,,0.00,,2013-02-01 17:42:00,
2013-02-01 12:52:00,24.0,3.0,29.62,WSW,256,10.0,10.0,40,0.00,,,0.00,,2013-02-01 17:52:00,
2013-02-01 13:03:00,24.0,3.0,29.62,WSW,256,10.0,10.0,40,0.00,,,0.00,,2013-02-01 18:03:00,
2013-02-01 13:12:00,24.0,3.0,29.62,WSW,256,10.0,10.0,40,0.00,,,0.00,,2013-02-01 18:12:00,
2013-02-01 13:22:00,23.0,2.0,29.61,NW,312,3.0,14.0,40,0.00,,,0.00,,2013-02-01 18:22:00,
2013-02-01 13:32:00,23.0,2.0,29.61,NW,312,3.0,14.0,40,0.00,,,0.00,,2013-02-01 18:32:00,
2013-02-01 13:42:00,23.0,2.0,29.61,NW,312,3.0,14.0,40,0.00,,,0.00,,2013-02-01 18:42:00,
2013-02-01 13:53:00,24.0,3.0,29.62,SW,233,10.0,12.0,40,0.00,,,0.00,,2013-02-01 18:53:00,
2013-02-01 14:03:00,24.0,4.0,29.62,West,270,11.0,11.0,42,0.00,,,0.00,,2013-02-01 19:03:00,
2013-02-01 14:12:00,24.0,4.0,29.62,West,270,11.0,11.0,42,0.00,,,0.00,,2013-02-01 19:12:00,
2013-02-01 14:21:00,24.0,4.0,29.62,West,270,11.0,11.0,42,0.00,,,0.00,,2013-02-01 19:21:00,
2013-02-01 14:32:00,24.0,4.0,29.62,West,270,11.0,11.0,42,0.00,,,0.00,,2013-02-01 19:32:00,
2013-02-01 14:42:00,24.0,4.0,29.62,West,270,11.0,11.0,42,0.00,,,0.00,,2013-02-01 19:42:00,
2013-02-01 15:42:00,22.0,3.0,29.64,NE,47,6.0,11.0,43,0.00,,,0.00,,2013-02-01 20:42:00,
2013-02-01 15:52:00,22.0,3.0,29.64,NE,47,6.0,11.0,43,0.00,,,0.00,,2013-02-01 20:52:00,
2013-02-01 16:02:00,22.0,3.0,29.64,NE,47,6.0,11.0,43,0.00,,,0.00,,2013-02-01 21:02:00,
2013-02-01 16:12:00,22.0,3.0,29.64,NE,47,6.0,11.0,43,0.00,,,0.00,,2013-02-01 21:12:00,
2013-02-01 16:22:00,20.0,3.0,29.66,WSW,253,5.0,6.0,46,0.00,,,0.00,,2013-02-01 21:22:00,
2013-02-01 16:32:00,20.0,3.0,29.66,WSW,253,5.0,6.0,46,0.00,,,0.00,,2013-02-01 21:32:00,
2013-02-01 16:42:00,20.0,3.0,29.66,WSW,253,5.0,6.0,46,0.00,,,0.00,,2013-02-01 21:42:00,
2013-02-01 16:52:00,18.0,2.0,29.67,WNW,289,3.0,12.0,48,0.00,,,0.00,,2013-02-01 21:52:00,
2013-02-01 17:02:00,18.0,2.0,29.69,West,275,5.0,12.0,49,0.00,,,0.00,,2013-02-01 22:02:00,
2013-02-01 17:11:00,18.0,2.0,29.69,West,275,5.0,12.0,49,0.00,,,0.00,,2013-02-01 22:11:00,
2013-02-01 17:21:00,18.0,2.0,29.69,West,275,5.0,12.0,49,0.00,,,0.00,,2013-02-01 22:21:00,
2013-02-01 17:32:00,18.0,2.0,29.69,West,275,5.0,12.0,49,0.00,,,0.00,,2013-02-01 22:32:00,
2013-02-01 17:42:00,18.0,2.0,29.69,West,275,5.0,12.0,49,0.00,,,0.00,,2013-02-01 22:42:00,
2013-02-01 17:52:00,16.0,1.0,29.71,NW,311,3.0,12.0,51,0.00,,,0.00,,2013-02-01 22:52:00,
2013-02-01 18:02:00,16.0,2.0,29.74,West,264,2.0,5.0,52,0.00,,,0.00,,2013-02-01 23:02:00,
2013-02-01 18:11:00,16.0,1.0,29.74,NW,308,0.0,12.0,50,0.00,,,0.00,,2013-02-01 23:11:00,
2013-02-01 18:21:00,16.0,1.0,29.74,NW,308,0.0,12.0,50,0.00,,,0.00,,2013-02-01 23:21:00,
2013-02-01 18:32:00,15.0,0.0,29.76,West,260,3.0,8.0,51,0.00,,,0.00,,2013-02-01 23:32:00,
2013-02-01 18:42:00,15.0,0.0,29.76,West,260,3.0,8.0,51,0.00,,,0.00,,2013-02-01 23:42:00,
2013-02-01 18:52:00,15.0,0.0,29.77,WSW,254,0.0,3.0,50,0.00,,,0.00,,2013-02-01 23:52:00,
2013-02-01 19:02:00,15.0,0.0,29.77,WSW,254,0.0,6.0,51,0.00,,,0.00,,2013-02-02 00:02:00,
2013-02-01 19:11:00,15.0,0.0,29.77,WSW,254,0.0,6.0,51,0.00,,,0.00,,2013-02-02 00:11:00,
2013-02-01 19:21:00,15.0,1.0,29.79,WSW,251,0.0,3.0,52,0.00,,,0.00,,2013-02-02 00:21:00,
2013-02-01 19:32:00,15.0,0.0,29.79,WNW,288,2.0,4.0,50,0.00,,,0.00,,2013-02-02 00:32:00,
2013-02-01 19:42:00,15.0,0.0,29.79,WNW,288,2.0,4.0,50,0.00,,,0.00,,2013-02-02 00:42:00,
2013-02-01 19:52:00,15.0,-1.0,29.80,NW,312,0.0,12.0,49,0.00,,,0.00,,2013-02-02 00:52:00,
2013-02-01 20:02:00,14.0,-1.0,29.82,West,264,0.0,2.0,50,0.00,,,0.00,,2013-02-02 01:02:00,
2013-02-01 20:11:00,14.0,-1.0,29.82,West,264,0.0,2.0,50,0.00,,,0.00,,2013-02-02 01:11:00,
2013-02-01 20:21:00,14.0,-1.0,29.82,West,264,0.0,2.0,50,0.00,,,0.00,,2013-02-02 01:21:00,
2013-02-01 20:32:00,14.0,-1.0,29.82,West,264,0.0,2.0,50,0.00,,,0.00,,2013-02-02 01:32:00,
2013-02-01 20:42:00,14.0,-1.0,29.82,West,264,0.0,2.0,50,0.00,,,0.00,,2013-02-02 01:42:00,
2013-02-01 20:52:00,14.0,-1.0,29.83,NW,323,0.0,8.0,50,0.00,,,0.00,,2013-02-02 01:52:00,
2013-02-01 21:01:00,14.0,-2.0,29.84,SSW,198,6.0,7.0,49,0.00,,,0.00,,2013-02-02 02:01:00,
2013-02-01 21:11:00,14.0,-2.0,29.84,SSW,198,6.0,7.0,49,0.00,,,0.00,,2013-02-02 02:11:00,
2013-02-01 21:21:00,14.0,-2.0,29.84,WSW,250,2.0,10.0,47,0.00,,,0.00,,2013-02-02 02:21:00,
2013-02-01 21:32:00,14.0,-2.0,29.85,SSW,202,0.0,10.0,48,0.00,,,0.00,,2013-02-02 02:32:00,
2013-02-01 21:42:00,14.0,-2.0,29.85,SSW,202,0.0,10.0,48,0.00,,,0.00,,2013-02-02 02:42:00,
2013-02-01 21:52:00,14.0,-2.0,29.86,SSW,205,2.0,8.0,49,0.00,,,0.00,,2013-02-02 02:52:00,
2013-02-01 22:02:00,14.0,-2.0,29.86,SSW,205,2.0,8.0,49,0.00,,,0.00,,2013-02-02 03:02:00,
2013-02-01 22:11:00,14.0,-2.0,29.86,SSW,205,2.0,8.0,49,0.00,,,0.00,,2013-02-02 03:11:00,
2013-02-01 22:22:00,14.0,-2.0,29.86,SSW,205,2.0,8.0,49,0.00,,,0.00,,2013-02-02 03:22:00,
2013-02-01 22:32:00,13.0,-3.0,29.88,WNW,298,2.0,7.0,49,0.00,,,0.00,,2013-02-02 03:32:00,
2013-02-01 22:42:00,13.0,-2.0,29.88,North,356,1.0,13.0,50,0.00,,,0.00,,2013-02-02 03:42:00,
2013-02-01 22:52:00,13.0,-2.0,29.88,North,356,1.0,13.0,50,0.00,,,0.00,,2013-02-02 03:52:00,
2013-02-01 23:02:00,13.0,-2.0,29.88,SW,232,2.0,7.0,50,0.00,,,0.00,,2013-02-02 04:02:00,
2013-02-01 23:11:00,13.0,-2.0,29.88,SW,232,2.0,7.0,50,0.00,,,0.00,,2013-02-02 04:11:00,
2013-02-01 23:21:00,13.0,-2.0,29.89,SW,217,5.0,0.0,50,0.00,,,0.00,,2013-02-02 04:21:00,
2013-02-01 23:32:00,13.0,-3.0,29.89,NNW,328,1.0,14.0,48,0.00,,,0.00,,2013-02-02 04:32:00,
2013-02-01 23:42:00,13.0,-3.0,29.89,NNW,328,1.0,14.0,48,0.00,,,0.00,,2013-02-02 04:42:00,
2013-02-01 23:52:00,13.0,-3.0,29.89,NW,309,0.0,6.0,48,0.00,,,0.00,,2013-02-02 04:52:00,